Time;durP1;ratioP1;P1;durP2;ratioP2;P2;SDS_P1;SDS_P2;PMS_P1;PMS_P2;Temp;Humidity;BMP_temperature;BMP_pressure;BME280_temperature;BME280_humidity;BME280_pressure;Samples;Min_cycle;Max_cycle;Signal;HPM_P1;HPM_P2
2022/06/22 00:01:31;;;;;;;8.57;4.32;;;;;;;21.29;78.99;96087.84;5045111;28;20616;-50
2022/06/22 00:04:00;;;;;;;7.82;4.35;;;;;;;21.28;79.12;96080.03;5055532;28;20577;-49
2022/06/22 00:06:33;;;;;;;9.30;4.70;;;;;;;21.28;79.02;96069.25;5050366;28;20218;-50
2022/06/22 00:09:04;;;;;;;11.27;4.80;;;;;;;21.24;79.17;96070.75;5047445;28;20696;-49
2022/06/22 00:11:31;;;;;;;8.68;4.50;;;;;;;21.27;79.02;96070.31;5042133;28;20207;-50
2022/06/22 00:14:02;;;;;;;6.22;4.15;;;;;;;21.22;79.22;96070.97;5042014;28;20656;-50
2022/06/22 00:16:32;;;;;;;4.60;4.05;;;;;;;21.23;79.03;96077.16;5042769;28;20195;-50
2022/06/22 00:19:00;;;;;;;7.10;4.60;;;;;;;21.20;79.98;96077.63;5053804;28;20297;-49
2022/06/22 00:21:30;;;;;;;8.57;4.90;;;;;;;21.17;80.66;96080.75;5052706;28;20293;-50
2022/06/22 00:23:58;;;;;;;7.22;5.05;;;;;;;21.17;80.10;96076.19;5058715;28;20242;-49
2022/06/22 00:26:33;;;;;;;10.73;5.00;;;;;;;21.15;80.01;96072.91;5056847;28;20214;-50
2022/06/22 00:29:15;;;;;;;8.40;4.90;;;;;;;21.12;80.17;96072.53;5045344;28;20199;-50
2022/06/22 00:31:45;;;;;;;9.23;4.65;;;;;;;21.16;79.42;96071.84;5045963;28;20192;-50
2022/06/22 00:34:17;;;;;;;8.82;4.97;;;;;;;21.11;80.67;96069.03;5045778;28;20645;-49
2022/06/22 00:36:50;;;;;;;8.88;4.47;;;;;;;21.07;80.57;96069.66;5044585;28;20290;-49
2022/06/22 00:39:22;;;;;;;6.88;4.03;;;;;;;21.00;81.56;96066.22;5049113;28;20199;-49
2022/06/22 00:41:54;;;;;;;8.10;4.78;;;;;;;21.01;81.05;96057.13;5053980;28;20203;-49
2022/06/22 00:44:22;;;;;;;8.75;5.05;;;;;;;21.02;80.82;96059.56;5058280;28;20214;-49
2022/06/22 00:46:57;;;;;;;8.00;4.82;;;;;;;21.04;79.96;96062.88;5044645;28;20318;-50
2022/06/22 00:49:25;;;;;;;7.65;4.30;;;;;;;21.02;80.17;96064.13;5046309;28;20306;-49
2022/06/22 00:51:53;;;;;;;8.95;4.32;;;;;;;20.98;80.42;96084.41;5063041;28;20206;-49
2022/06/22 00:54:25;;;;;;;8.15;4.18;;;;;;;20.97;80.72;96077.41;5065954;28;20207;-50
2022/06/22 00:56:59;;;;;;;9.63;4.53;;;;;;;20.91;81.19;96083.66;5051364;28;20213;-50
2022/06/22 00:59:34;;;;;;;9.77;4.22;;;;;;;20.83;82.46;96093.66;5063762;28;20285;-50
2022/06/22 01:02:04;;;;;;;11.32;5.07;;;;;;;20.86;81.81;96092.41;5055277;28;20651;-51
2022/06/22 01:04:36;;;;;;;6.80;4.13;;;;;;;20.82;83.00;96089.34;5044421;28;20814;-51
2022/06/22 01:07:09;;;;;;;9.88;4.13;;;;;;;20.83;83.43;96098.22;5058001;28;20203;-51
2022/06/22 01:09:40;;;;;;;10.48;4.75;;;;;;;20.79;83.92;96100.53;5044926;28;20191;-49
2022/06/22 01:12:22;;;;;;;6.95;4.57;;;;;;;20.80;83.54;96098.63;5045932;28;20599;-51
2022/06/22 01:15:07;;;;;;;10.15;4.55;;;;;;;20.84;83.05;96094.47;5045742;28;20585;-50
2022/06/22 01:17:38;;;;;;;9.63;4.80;;;;;;;20.79;83.93;96092.47;5044108;28;20631;-50
2022/06/22 01:20:13;;;;;;;7.88;5.43;;;;;;;20.82;83.42;96091.19;5046900;28;20288;-50
2022/06/22 01:23:02;;;;;;;9.73;4.60;;;;;;;20.83;83.34;96093.66;5051046;28;20711;-50
2022/06/22 01:25:49;;;;;;;8.00;4.13;;;;;;;20.85;83.19;96096.94;5052372;28;20315;-50
2022/06/22 01:28:18;;;;;;;8.02;5.18;;;;;;;20.83;83.09;96092.84;5045980;28;20626;-49
2022/06/22 01:30:49;;;;;;;9.27;4.57;;;;;;;20.81;83.68;96090.38;5051330;28;20628;-50
2022/06/22 01:33:19;;;;;;;10.00;4.72;;;;;;;20.83;83.09;96080.22;5049718;28;20195;-49
2022/06/22 01:35:46;;;;;;;6.97;4.53;;;;;;;20.87;82.63;96083.28;5044189;28;20199;-50
2022/06/22 01:38:29;;;;;;;7.80;4.57;;;;;;;20.85;83.21;96080.81;5056917;28;20206;-50
2022/06/22 01:41:04;;;;;;;12.65;4.78;;;;;;;20.83;83.36;96076.72;5046704;28;20286;-50
2022/06/22 01:43:34;;;;;;;9.02;4.57;;;;;;;20.81;83.61;96074.25;5044294;28;20199;-50
2022/06/22 01:46:07;;;;;;;7.25;4.65;;;;;;;20.84;83.30;96060.34;5046279;28;20227;-50
2022/06/22 01:48:37;;;;;;;13.13;4.72;;;;;;;20.89;82.85;96061.56;5055873;28;20639;-50
2022/06/22 01:51:12;;;;;;;8.95;4.93;;;;;;;20.87;82.94;96052.91;5044799;28;20199;-50
2022/06/22 01:53:43;;;;;;;6.60;4.47;;;;;;;20.83;84.53;96060.59;5046341;28;20187;-50
2022/06/22 01:56:16;;;;;;;8.10;4.85;;;;;;;20.79;85.28;96054.84;5078384;28;20203;-50
2022/06/22 01:58:58;;;;;;;8.57;4.68;;;;;;;20.85;84.21;96059.31;5078314;28;20203;-51
2022/06/22 02:01:32;;;;;;;9.90;5.00;;;;;;;20.83;84.46;96060.59;5062415;28;20203;-50
2022/06/22 02:04:17;;;;;;;10.65;5.10;;;;;;;20.79;85.25;96049.47;5045004;28;20287;-51
2022/06/22 02:09:51;;;;;;;9.40;4.47;;;;;;;20.81;85.36;96068.03;5043115;28;20205;-50
2022/06/22 02:12:28;;;;;;;8.23;4.57;;;;;;;20.79;85.44;96068.28;5025805;28;20199;-51
2022/06/22 02:15:06;;;;;;;12.13;4.68;;;;;;;20.80;85.13;96074.44;5047868;28;20511;-49
2022/06/22 02:17:38;;;;;;;8.00;4.70;;;;;;;20.80;86.16;96083.34;5049895;28;20613;-50
2022/06/22 02:20:40;;;;;;;7.13;4.82;;;;;;;20.79;85.74;96087.09;5047558;28;20294;-50
2022/06/22 02:23:17;;;;;;;8.23;4.88;;;;;;;20.79;86.75;96087.09;5041489;28;20698;-50
2022/06/22 02:25:49;;;;;;;9.07;4.80;;;;;;;20.79;87.85;96095.16;5049101;28;20214;-50
2022/06/22 02:28:17;;;;;;;10.13;5.30;;;;;;;20.77;87.70;96089.16;5044193;28;20700;-50
2022/06/22 02:30:45;;;;;;;7.68;4.75;;;;;;;20.82;87.57;96091.19;5049061;28;20208;-50
2022/06/22 02:33:14;;;;;;;8.90;4.63;;;;;;;20.85;87.20;96098.81;5048727;28;20651;-50
2022/06/22 02:35:44;;;;;;;7.70;4.85;;;;;;;20.88;87.01;96092.16;5041302;28;20299;-50
2022/06/22 02:38:14;;;;;;;7.18;4.68;;;;;;;20.90;86.32;96092.78;5042700;28;20306;-50
2022/06/22 02:46:16;;;;;;;7.00;5.18;;;;;;;20.83;89.52;96084.78;5043136;28;20214;-49
2022/06/22 02:48:46;;;;;;;9.95;5.40;;;;;;;20.84;90.70;96089.09;5041280;28;20329;-50
2022/06/22 02:51:22;;;;;;;8.45;4.93;;;;;;;20.85;91.10;96090.75;5055400;28;20299;-50
2022/06/22 02:53:50;;;;;;;12.05;5.35;;;;;;;20.85;91.50;96091.56;5044879;28;20199;-50
2022/06/22 02:56:22;;;;;;;7.38;4.93;;;;;;;20.85;91.98;96102.31;5055941;28;20521;-50
2022/06/22 02:58:50;;;;;;;8.15;5.05;;;;;;;20.85;91.20;96096.94;5046077;28;20538;-50
2022/06/22 03:01:20;;;;;;;12.68;5.30;;;;;;;20.78;93.47;96088.13;5052870;28;20211;-49
2022/06/22 03:03:52;;;;;;;7.00;5.15;;;;;;;20.73;94.83;96082.56;5056144;28;20339;-50
2022/06/22 03:06:22;;;;;;;8.82;5.10;;;;;;;20.74;95.01;96081.53;5056028;28;20589;-50
2022/06/22 03:08:50;;;;;;;7.30;5.05;;;;;;;20.74;95.05;96088.78;5055610;28;20298;-50
2022/06/22 03:11:17;;;;;;;8.90;5.32;;;;;;;20.72;95.06;96078.25;5042322;28;20242;-50
2022/06/22 03:13:49;;;;;;;8.20;5.07;;;;;;;20.74;94.22;96084.22;5042337;28;20207;-50
2022/06/22 03:16:25;;;;;;;9.05;5.07;;;;;;;20.71;94.06;96091.91;5042363;28;20596;-50
2022/06/22 03:18:53;;;;;;;7.70;5.32;;;;;;;20.71;94.66;96100.78;5041264;28;20202;-51
2022/06/22 03:21:20;;;;;;;11.63;5.78;;;;;;;20.68;95.35;96101.22;5043363;28;20309;-50
2022/06/22 03:23:51;;;;;;;10.38;5.43;;;;;;;20.68;95.50;96092.34;5042062;28;20299;-50
2022/06/22 03:26:19;;;;;;;10.35;5.25;;;;;;;20.63;96.61;96098.38;5055649;28;20211;-50
2022/06/22 03:28:55;;;;;;;9.63;5.07;;;;;;;20.70;94.46;96104.50;5042039;28;20269;-49
2022/06/22 03:31:25;;;;;;;13.65;6.03;;;;;;;20.62;96.10;96109.31;5044911;28;20211;-50
2022/06/22 03:33:58;;;;;;;9.40;5.35;;;;;;;20.61;96.19;96113.91;5053215;28;20659;-51
2022/06/22 03:36:31;;;;;;;10.50;5.60;;;;;;;20.60;96.97;96106.03;5054528;28;20646;-49
2022/06/22 03:39:02;;;;;;;10.13;6.03;;;;;;;20.62;97.38;96112.84;5042175;28;20199;-50
2022/06/22 03:41:33;;;;;;;9.48;5.38;;;;;;;20.63;96.85;96103.75;5042507;28;20692;-50
2022/06/22 03:44:02;;;;;;;11.13;5.53;;;;;;;20.65;96.32;96098.16;5056645;28;20210;-51
2022/06/22 03:46:36;;;;;;;8.73;5.20;;;;;;;20.65;97.17;96096.28;5069743;28;20218;-51
2022/06/22 03:49:05;;;;;;;8.65;5.30;;;;;;;20.68;96.80;96105.78;5056557;28;20321;-51
2022/06/22 03:51:36;;;;;;;7.88;5.13;;;;;;;20.69;95.86;96116.28;5043058;28;20275;-51
2022/06/22 03:54:11;;;;;;;8.80;5.47;;;;;;;20.70;95.76;96112.56;5045852;28;20242;-50
2022/06/22 03:56:40;;;;;;;8.13;5.20;;;;;;;20.68;94.71;96121.91;5048942;28;20196;-50
2022/06/22 03:59:07;;;;;;;6.32;4.90;;;;;;;20.65;96.78;96120.44;5047723;28;20290;-50
2022/06/22 04:01:35;;;;;;;11.50;5.30;;;;;;;20.63;97.18;96127.94;5073469;28;20267;-50
2022/06/22 04:04:02;;;;;;;9.20;5.43;;;;;;;20.63;97.60;96133.28;5090700;28;20206;-51
2022/06/22 04:06:31;;;;;;;9.68;5.60;;;;;;;20.64;97.82;96110.78;5083537;28;20226;-52
2022/06/22 04:08:59;;;;;;;7.22;5.50;;;;;;;20.63;99.51;96106.44;5070987;28;20241;-50
2022/06/22 04:11:29;;;;;;;11.52;5.90;;;;;;;20.60;100.00;96109.56;5052263;28;20207;-50
2022/06/22 04:14:01;;;;;;;7.75;5.50;;;;;;;20.62;100.00;96102.09;5052226;28;20214;-50
2022/06/22 04:16:33;;;;;;;9.18;6.00;;;;;;;20.64;100.00;96112.63;5046857;28;20278;-49
2022/06/22 04:19:05;;;;;;;8.20;5.70;;;;;;;20.65;100.00;96107.03;5045454;28;20524;-50
2022/06/22 04:21:36;;;;;;;9.68;5.72;;;;;;;20.65;99.06;96114.28;5049603;28;20529;-50
2022/06/22 04:24:11;;;;;;;8.77;5.40;;;;;;;20.68;97.66;96132.66;5055875;28;20298;-50
2022/06/22 04:26:42;;;;;;;7.45;5.43;;;;;;;20.70;96.48;96141.31;5058551;28;20214;-50
2022/06/22 04:29:14;;;;;;;9.98;5.93;;;;;;;20.82;93.80;96151.16;5045613;28;20278;-49
2022/06/22 04:31:48;;;;;;;8.57;5.80;;;;;;;20.85;92.92;96139.94;5046158;28;20282;-50
2022/06/22 04:34:21;;;;;;;10.77;5.80;;;;;;;20.81;94.41;96127.16;5046119;28;20195;-49
2022/06/22 04:36:51;;;;;;;10.00;5.72;;;;;;;20.81;94.52;96114.56;5044663;28;20643;-50
2022/06/22 04:39:23;;;;;;;10.70;6.18;;;;;;;20.80;96.22;96120.97;5058548;28;20635;-50
2022/06/22 04:41:52;;;;;;;10.18;5.97;;;;;;;20.82;96.60;96139.56;5054641;28;20215;-49
2022/06/22 04:44:22;;;;;;;9.38;5.40;;;;;;;20.88;94.33;96148.59;5048226;28;20289;-49
2022/06/22 04:46:53;;;;;;;9.70;5.63;;;;;;;20.90;94.43;96149.22;5044617;28;20674;-50
2022/06/22 04:49:23;;;;;;;11.00;5.78;;;;;;;20.91;94.79;96153.53;5046389;28;20236;-51
2022/06/22 04:51:52;;;;;;;8.07;5.85;;;;;;;20.92;92.90;96157.88;5057012;28;20221;-50
2022/06/22 04:54:24;;;;;;;7.88;5.18;;;;;;;20.93;93.02;96138.03;5045888;28;20250;-50
2022/06/22 04:56:55;;;;;;;8.52;5.07;;;;;;;20.96;91.45;96137.59;5051865;28;20192;-50
2022/06/22 04:59:22;;;;;;;14.07;5.50;;;;;;;20.96;91.61;96146.47;5050414;28;20195;-50
2022/06/22 05:01:52;;;;;;;13.93;5.22;;;;;;;20.96;93.49;96149.16;5041127;28;20196;-51
2022/06/22 05:04:28;;;;;;;8.75;5.63;;;;;;;20.96;94.62;96165.31;5038554;28;20536;-51
2022/06/22 05:07:00;;;;;;;8.98;5.03;;;;;;;20.91;93.60;96162.44;5048963;28;20281;-50
2022/06/22 05:09:30;;;;;;;8.38;5.38;;;;;;;20.92;92.98;96168.63;5050738;28;20290;-50
2022/06/22 05:11:57;;;;;;;8.68;5.18;;;;;;;20.94;90.77;96166.56;5047219;28;20214;-50
2022/06/22 05:14:27;;;;;;;9.32;5.40;;;;;;;20.89;95.65;96167.22;5057936;28;20214;-49
2022/06/22 05:16:57;;;;;;;10.35;5.57;;;;;;;20.97;95.04;96182.25;5046778;28;20282;-50
2022/06/22 05:19:34;;;;;;;9.45;5.40;;;;;;;21.01;94.82;96176.19;5049809;28;20195;-50
2022/06/22 05:22:04;;;;;;;8.50;5.18;;;;;;;20.94;95.53;96174.63;5050941;28;20230;-49
2022/06/22 05:24:34;;;;;;;6.45;5.10;;;;;;;20.82;99.12;96175.34;5045022;28;20207;-49
2022/06/22 05:27:04;;;;;;;15.90;5.80;;;;;;;20.76;100.00;96173.50;5044179;28;20691;-52
2022/06/22 05:29:34;;;;;;;10.85;5.90;;;;;;;20.78;100.00;96178.66;5048882;28;20667;-50
2022/06/22 05:32:04;;;;;;;11.82;6.25;;;;;;;20.78;100.00;96176.81;5051039;28;20215;-50
2022/06/22 05:34:34;;;;;;;14.77;5.50;;;;;;;20.77;98.92;96172.47;5047151;28;20298;-50
2022/06/22 05:37:04;;;;;;;11.63;6.43;;;;;;;20.78;99.56;96168.75;5053748;28;20299;-50
2022/06/22 05:39:33;;;;;;;10.82;5.20;;;;;;;20.82;100.00;96172.66;5048251;28;20282;-50
2022/06/22 05:42:01;;;;;;;12.52;5.82;;;;;;;20.75;99.63;96171.88;5043732;28;20207;-49
2022/06/22 05:44:29;;;;;;;9.75;5.72;;;;;;;20.83;99.73;96179.66;5045286;28;20208;-51
2022/06/22 05:46:57;;;;;;;7.72;5.00;;;;;;;20.94;99.39;96185.38;5050386;28;20293;-50
2022/06/22 05:49:29;;;;;;;10.25;5.88;;;;;;;20.86;100.00;96183.78;5049380;28;20238;-51
2022/06/22 05:52:01;;;;;;;9.65;5.57;;;;;;;20.82;100.00;96163.75;5043919;28;20537;-49
2022/06/22 05:54:35;;;;;;;9.02;5.45;;;;;;;20.79;100.00;96156.97;5043358;28;20665;-50
2022/06/22 05:57:13;;;;;;;8.48;5.50;;;;;;;20.77;100.00;96153.66;5048076;28;20199;-50
2022/06/22 05:59:46;;;;;;;8.32;5.70;;;;;;;20.76;100.00;96141.25;5050267;28;20614;-51
2022/06/22 06:02:19;;;;;;;10.73;5.47;;;;;;;20.78;100.00;96132.97;5047589;28;20202;-50
2022/06/22 06:04:51;;;;;;;9.23;5.75;;;;;;;20.83;100.00;96143.91;5050784;28;20203;-50
2022/06/22 06:07:26;;;;;;;8.43;5.80;;;;;;;20.89;100.00;96140.34;5050464;28;20215;-50
2022/06/22 06:09:53;;;;;;;10.57;5.97;;;;;;;20.95;100.00;96134.06;5052187;28;20194;-49
2022/06/22 06:12:22;;;;;;;9.15;5.82;;;;;;;21.03;100.00;96125.75;5072836;28;20230;-51
2022/06/22 06:14:55;;;;;;;11.20;6.38;;;;;;;21.10;100.00;96134.59;5060273;28;20599;-50
2022/06/22 06:17:25;;;;;;;12.05;5.60;;;;;;;21.20;100.00;96136.78;5051148;28;20195;-50
2022/06/22 06:19:54;;;;;;;9.40;5.93;;;;;;;21.29;100.00;96140.84;5047221;28;20290;-50
2022/06/22 06:22:24;;;;;;;9.65;6.00;;;;;;;21.34;99.66;96138.28;5056895;28;20302;-50
2022/06/22 06:27:42;;;;;;;10.05;6.10;;;;;;;21.45;99.65;96139.44;5043236;28;20214;-50
2022/06/22 06:30:15;;;;;;;11.00;5.85;;;;;;;21.49;97.39;96129.88;5042516;28;20299;-51
2022/06/22 06:32:48;;;;;;;10.25;6.28;;;;;;;21.58;96.81;96129.34;5048488;28;20266;-51
2022/06/22 06:35:18;;;;;;;8.80;5.47;;;;;;;21.67;95.72;96117.25;5049914;28;20199;-49
2022/06/22 06:37:55;;;;;;;9.85;5.65;;;;;;;21.72;90.88;96117.38;5045904;28;20203;-49
2022/06/22 06:40:26;;;;;;;10.63;5.60;;;;;;;21.83;90.86;96116.63;5043205;28;20294;-50
2022/06/22 06:42:57;;;;;;;8.32;5.13;;;;;;;21.95;90.49;96113.22;5044815;28;20224;-50
2022/06/22 06:45:26;;;;;;;10.50;5.50;;;;;;;22.04;89.70;96114.53;5050308;28;20236;-50
2022/06/22 06:48:00;;;;;;;9.80;5.63;;;;;;;22.13;89.05;96114.00;5036375;28;20234;-51
2022/06/22 06:50:32;;;;;;;21.30;6.75;;;;;;;22.12;87.92;96111.53;5047031;28;20212;-51
2022/06/22 06:53:08;;;;;;;12.82;5.88;;;;;;;22.14;87.64;96121.00;5050907;28;20295;-50
2022/06/22 06:55:40;;;;;;;9.63;5.63;;;;;;;22.16;86.39;96131.56;5056661;28;20211;-51
2022/06/22 06:58:15;;;;;;;10.48;5.25;;;;;;;22.17;85.56;96119.75;5057696;28;20191;-50
2022/06/22 07:00:43;;;;;;;26.88;6.90;;;;;;;22.18;86.59;96121.38;5050875;28;20563;-50
2022/06/22 07:03:20;;;;;;;24.27;7.80;;;;;;;22.17;89.21;96106.28;5050553;28;20211;-50
2022/06/22 07:05:47;;;;;;;18.05;5.90;;;;;;;22.15;89.26;96116.44;5049692;28;20195;-50
2022/06/22 07:08:19;;;;;;;11.02;5.20;;;;;;;22.13;87.16;96121.25;5048933;28;20301;-51
2022/06/22 07:10:50;;;;;;;8.40;5.15;;;;;;;22.12;86.97;96130.38;5049247;28;20195;-49
2022/06/22 07:13:23;;;;;;;7.13;5.25;;;;;;;22.06;87.16;96131.28;5044114;28;20213;-50
2022/06/22 07:15:54;;;;;;;9.07;5.35;;;;;;;22.07;87.89;96141.03;5042879;28;20203;-50
2022/06/22 07:18:30;;;;;;;11.23;5.70;;;;;;;22.01;87.67;96149.97;5045448;28;20208;-50
2022/06/22 07:21:09;;;;;;;10.48;5.80;;;;;;;22.00;87.17;96148.38;5054156;28;20221;-50
2022/06/22 07:23:40;;;;;;;10.15;5.63;;;;;;;21.98;88.08;96155.81;5042783;28;20208;-50
2022/06/22 07:26:14;;;;;;;13.23;5.70;;;;;;;21.98;90.21;96166.59;5048795;28;20187;-49
2022/06/22 07:28:45;;;;;;;12.27;5.60;;;;;;;22.02;90.68;96173.19;5041849;28;20306;-51
2022/06/22 07:31:16;;;;;;;9.77;5.30;;;;;;;22.00;92.26;96177.97;5046552;28;20204;-50
2022/06/22 07:33:45;;;;;;;9.80;5.88;;;;;;;22.02;91.97;96186.66;5039160;28;20206;-50
2022/06/22 07:36:17;;;;;;;11.63;5.40;;;;;;;22.01;92.39;96188.50;5049608;28;20532;-50
2022/06/22 07:38:49;;;;;;;9.45;5.35;;;;;;;21.95;92.58;96194.81;5054050;28;20262;-50
2022/06/22 07:41:22;;;;;;;11.07;5.90;;;;;;;21.95;93.65;96202.88;5040113;28;20207;-50
2022/06/22 07:43:52;;;;;;;9.82;5.63;;;;;;;21.85;94.48;96205.25;5054395;28;20199;-49
2022/06/22 07:46:23;;;;;;;8.88;5.70;;;;;;;21.83;95.56;96208.16;5055967;28;20279;-50
2022/06/22 07:48:56;;;;;;;11.98;6.07;;;;;;;21.75;96.48;96213.81;5050369;28;20325;-50
2022/06/22 07:51:28;;;;;;;9.27;6.45;;;;;;;21.76;96.35;96212.78;5050014;28;20204;-50
2022/06/22 07:54:00;;;;;;;8.20;6.35;;;;;;;21.64;97.52;96219.97;5073793;28;20214;-50
2022/06/22 07:56:35;;;;;;;13.35;6.60;;;;;;;21.56;100.00;96222.94;5094549;28;20186;-50
2022/06/22 07:59:07;;;;;;;9.02;6.05;;;;;;;21.51;99.36;96230.84;5081697;28;20206;-49
2022/06/22 08:01:39;;;;;;;8.85;6.60;;;;;;;21.44;99.54;96230.06;5068708;28;20210;-50
2022/06/22 08:04:10;;;;;;;11.18;6.40;;;;;;;21.39;100.00;96224.53;5094231;28;20199;-49
2022/06/22 08:06:39;;;;;;;10.68;6.25;;;;;;;21.32;100.00;96231.84;5088691;28;20186;-50
2022/06/22 08:09:14;;;;;;;8.13;6.40;;;;;;;21.28;100.00;96230.63;5087556;28;20219;-49
2022/06/22 08:11:44;;;;;;;9.27;7.47;;;;;;;21.20;100.00;96238.97;5074629;28;20186;-51
2022/06/22 08:14:15;;;;;;;11.48;6.90;;;;;;;21.13;100.00;96233.66;5074835;28;20199;-50
2022/06/22 08:16:44;;;;;;;10.75;6.68;;;;;;;21.13;100.00;96238.19;5092782;28;20183;-49
2022/06/22 08:19:11;;;;;;;9.65;6.43;;;;;;;21.09;100.00;96242.31;5069627;28;20202;-50
2022/06/22 08:21:44;;;;;;;11.85;6.90;;;;;;;21.03;100.00;96240.53;5062460;28;20242;-49
2022/06/22 08:24:15;;;;;;;10.35;7.05;;;;;;;21.00;100.00;96243.66;5078071;28;20254;-52
2022/06/22 08:26:43;;;;;;;10.82;6.80;;;;;;;20.98;100.00;96240.34;5059034;28;20256;-50
2022/06/22 08:29:10;;;;;;;12.32;7.55;;;;;;;20.99;100.00;96247.38;5045194;28;20773;-50
2022/06/22 08:31:42;;;;;;;12.48;6.85;;;;;;;20.99;100.00;96252.75;5046730;28;20298;-50
2022/06/22 08:34:11;;;;;;;13.73;7.30;;;;;;;20.96;100.00;96247.81;5051745;28;20278;-49
2022/06/22 08:36:46;;;;;;;11.38;7.03;;;;;;;20.96;100.00;96250.50;5051938;28;20207;-49
2022/06/22 08:39:19;;;;;;;11.02;6.25;;;;;;;20.87;100.00;96249.13;5050299;28;20296;-50
2022/06/22 08:41:52;;;;;;;12.07;6.78;;;;;;;20.83;100.00;96254.09;5051955;28;20199;-51
2022/06/22 08:44:27;;;;;;;15.77;6.68;;;;;;;20.77;100.00;96252.25;5048809;28;20198;-50
2022/06/22 08:47:27;;;;;;;14.98;7.03;;;;;;;20.79;100.00;96259.09;5044831;28;20203;-50
2022/06/22 08:50:07;;;;;;;13.68;6.15;;;;;;;20.74;100.00;96250.84;5027717;28;20259;-50
2022/06/22 08:52:46;;;;;;;12.27;5.93;;;;;;;20.60;100.00;96249.25;5057899;28;20202;-50
2022/06/22 08:55:33;;;;;;;12.07;5.93;;;;;;;20.59;100.00;96252.97;5051431;28;20275;-49
2022/06/22 08:58:11;;;;;;;15.75;5.90;;;;;;;20.60;100.00;96248.44;5052889;28;20286;-49
2022/06/22 09:00:44;;;;;;;14.88;5.32;;;;;;;20.58;100.00;96255.91;5057075;28;20195;-51
2022/06/22 09:03:47;;;;;;;13.57;5.60;;;;;;;20.55;100.00;96262.50;5051823;28;20724;-50
2022/06/22 09:06:26;;;;;;;11.90;5.72;;;;;;;20.57;100.00;96263.13;5046466;28;20266;-50
2022/06/22 09:09:25;;;;;;;11.60;5.38;;;;;;;20.59;100.00;96269.09;5057846;28;20219;-51
2022/06/22 09:12:05;;;;;;;13.23;5.57;;;;;;;20.59;100.00;96268.28;5047174;28;20214;-49
2022/06/22 09:14:51;;;;;;;11.50;5.47;;;;;;;20.64;100.00;96271.97;5043706;28;20251;-50
2022/06/22 09:17:29;;;;;;;10.07;5.10;;;;;;;20.70;100.00;96275.66;5043435;28;20191;-49
2022/06/22 09:20:10;;;;;;;12.85;4.78;;;;;;;20.68;100.00;96277.75;5047199;28;20207;-50
2022/06/22 09:22:47;;;;;;;9.93;4.88;;;;;;;20.65;100.00;96273.59;5055334;28;20218;-50
2022/06/22 09:25:26;;;;;;;15.30;5.40;;;;;;;20.60;100.00;96280.66;5056758;28;20638;-49
2022/06/22 09:28:01;;;;;;;10.93;4.85;;;;;;;20.62;100.00;96276.72;5045005;28;20239;-49
2022/06/22 09:30:51;;;;;;;10.43;4.90;;;;;;;20.56;100.00;96280.28;5043279;28;20743;-50
2022/06/22 09:33:35;;;;;;;13.05;4.88;;;;;;;20.63;100.00;96283.75;5044389;28;20354;-50
2022/06/22 09:36:32;;;;;;;14.02;5.78;;;;;;;20.71;100.00;96283.50;5045055;28;20195;-51
2022/06/22 09:39:24;;;;;;;11.20;5.00;;;;;;;20.81;100.00;96281.19;5037821;28;20221;-50
2022/06/22 09:42:03;;;;;;;9.55;4.88;;;;;;;20.84;100.00;96283.44;5043718;28;20210;-50
2022/06/22 09:45:11;;;;;;;9.98;5.05;;;;;;;20.88;100.00;96288.38;5045303;28;20211;-51
2022/06/22 09:48:24;;;;;;;14.65;5.53;;;;;;;20.98;100.00;96283.34;5045761;28;20297;-50
2022/06/22 09:51:20;;;;;;;10.25;5.10;;;;;;;21.00;100.00;96287.50;5023228;28;20217;-51
2022/06/22 09:56:19;;;;;;;11.70;5.00;;;;;;;21.09;100.00;96288.03;5044584;28;20298;-50
2022/06/22 09:57:05;;;;;;;11.18;5.20;;;;;;;21.03;100.00;96287.06;5045441;28;20214;-50
2022/06/22 10:00:04;;;;;;;12.75;5.38;;;;;;;21.00;100.00;96283.97;5044123;28;20203;-50
2022/06/22 10:02:50;;;;;;;11.77;4.78;;;;;;;21.08;100.00;96278.34;5058015;28;20292;-51
2022/06/22 10:05:43;;;;;;;11.77;5.72;;;;;;;21.06;100.00;96285.78;5046921;28;20289;-50
2022/06/22 10:08:23;;;;;;;13.13;5.72;;;;;;;21.11;100.00;96288.69;5043052;28;20208;-49
2022/06/22 10:10:52;;;;;;;14.23;5.82;;;;;;;21.10;100.00;96289.69;5043384;28;20306;-50
2022/06/22 10:14:04;;;;;;;15.50;6.00;;;;;;;21.07;100.00;96284.75;5048499;28;20204;-50
2022/06/22 10:16:42;;;;;;;13.40;6.28;;;;;;;21.11;100.00;96291.38;5046006;28;20234;-50
2022/06/22 10:19:23;;;;;;;13.75;5.43;;;;;;;21.20;100.00;96285.50;5043981;28;20278;-50
2022/06/22 10:22:02;;;;;;;15.30;5.95;;;;;;;21.34;100.00;96280.84;5061193;28;20194;-51
2022/06/22 10:24:43;;;;;;;14.07;5.78;;;;;;;21.44;100.00;96278.50;5059259;28;20229;-51
2022/06/22 10:27:46;;;;;;;10.40;5.32;;;;;;;21.65;100.00;96275.41;5068961;28;20192;-51
2022/06/22 10:30:19;;;;;;;11.15;5.82;;;;;;;21.80;100.00;96269.69;5055665;28;20196;-50
2022/06/22 10:33:10;;;;;;;14.10;5.72;;;;;;;21.87;97.78;96273.13;5074364;28;20199;-50
2022/06/22 10:36:17;;;;;;;11.57;6.07;;;;;;;21.93;98.32;96271.47;5061255;28;20211;-52
2022/06/22 10:39:06;;;;;;;12.40;6.90;;;;;;;21.94;100.00;96267.72;5049324;28;20621;-50
2022/06/22 10:45:09;;;;;;;15.45;6.88;;;;;;;21.94;97.80;96263.16;5046841;28;20203;-50
2022/06/22 10:48:11;;;;;;;13.23;6.95;;;;;;;21.87;98.29;96250.78;5045206;28;20203;-50
2022/06/22 10:50:45;;;;;;;12.20;6.38;;;;;;;21.88;97.03;96252.44;5042414;28;20206;-50
2022/06/22 10:53:44;;;;;;;13.65;5.93;;;;;;;22.05;95.77;96250.81;5055728;28;20600;-55
2022/06/22 10:56:20;;;;;;;14.18;6.80;;;;;;;22.21;95.31;96242.94;5049748;28;20218;-56
2022/06/22 10:58:59;;;;;;;15.18;7.03;;;;;;;22.64;92.60;96239.31;5055532;28;20210;-55
2022/06/22 11:01:37;;;;;;;12.32;6.75;;;;;;;22.93;92.54;96240.38;5056905;28;20241;-55
2022/06/22 11:04:48;;;;;;;15.05;7.20;;;;;;;22.98;92.62;96237.81;5056306;28;20203;-51
2022/06/22 11:07:32;;;;;;;12.98;6.90;;;;;;;23.03;93.74;96229.84;5054909;28;20542;-50
2022/06/22 11:10:27;;;;;;;12.52;7.28;;;;;;;22.95;87.70;96224.81;5054955;28;20290;-51
2022/06/22 11:13:07;;;;;;;12.10;7.15;;;;;;;23.51;87.23;96227.88;5053353;28;20293;-51
2022/06/22 11:16:10;;;;;;;16.65;7.43;;;;;;;23.86;89.67;96225.16;5055636;28;20541;-53
2022/06/22 11:18:52;;;;;;;12.15;7.00;;;;;;;24.15;88.48;96228.78;5068121;28;20285;-50
2022/06/22 11:21:26;;;;;;;17.50;7.20;;;;;;;24.35;85.54;96234.63;5051540;28;20293;-53
2022/06/22 11:24:19;;;;;;;13.23;7.25;;;;;;;24.40;85.25;96247.41;5060544;28;20285;-51
2022/06/22 11:33:09;;;;;;;22.05;7.60;;;;;;;24.27;80.65;96241.22;5055459;28;20255;-51
2022/06/22 11:35:52;;;;;;;10.60;6.28;;;;;;;24.15;81.05;96240.44;5042546;28;20222;-51
2022/06/22 11:38:28;;;;;;;13.65;7.13;;;;;;;23.97;82.20;96243.25;5055944;28;20191;-50
2022/06/22 11:41:04;;;;;;;13.20;7.07;;;;;;;23.90;86.69;96244.41;5056037;28;20289;-50
2022/06/22 11:43:55;;;;;;;19.45;7.00;;;;;;;23.87;84.41;96248.41;5055882;28;20205;-51
2022/06/22 11:46:25;;;;;;;10.10;6.07;;;;;;;23.73;83.01;96253.25;5056192;28;20278;-51
2022/06/22 11:49:07;;;;;;;10.40;6.40;;;;;;;23.56;83.87;96257.66;5042274;28;20670;-51
2022/06/22 11:51:48;;;;;;;16.00;6.30;;;;;;;23.38;84.20;96260.44;5055793;28;20536;-51
2022/06/22 11:54:44;;;;;;;14.63;6.60;;;;;;;23.14;86.49;96243.38;5055448;28;20291;-52
2022/06/22 11:57:32;;;;;;;12.73;6.25;;;;;;;23.10;88.63;96235.97;5043792;28;20284;-51
2022/06/22 12:00:06;;;;;;;19.27;7.10;;;;;;;23.04;90.18;96215.31;5054130;28;20786;-52
2022/06/22 12:02:56;;;;;;;14.65;6.38;;;;;;;23.09;90.50;96199.28;5055075;28;20277;-52
2022/06/22 12:05:37;;;;;;;15.05;6.78;;;;;;;23.15;90.23;96184.84;5054548;28;20278;-51
2022/06/22 12:08:31;;;;;;;16.23;6.82;;;;;;;23.46;90.33;96187.25;5054643;28;20203;-51
2022/06/22 12:11:06;;;;;;;18.65;6.85;;;;;;;23.86;89.88;96184.66;5052739;28;20295;-51
2022/06/22 12:15:04;;;;;;;12.20;6.40;;;;;;;24.36;86.71;96174.09;5045674;28;20314;-50
2022/06/22 12:16:36;;;;;;;12.25;6.95;;;;;;;24.75;86.00;96165.13;5055348;28;20207;-53
2022/06/22 12:19:13;;;;;;;13.82;6.70;;;;;;;24.41;83.11;96171.47;5055392;28;20203;-52
2022/06/22 12:22:01;;;;;;;14.32;6.97;;;;;;;24.10;82.66;96167.34;5057616;28;20541;-51
2022/06/22 12:24:41;;;;;;;14.80;6.97;;;;;;;24.29;81.61;96162.63;5038912;28;20275;-59
2022/06/22 12:27:17;;;;;;;14.57;7.43;;;;;;;24.11;80.47;96162.75;5058695;28;20214;-57